Arctic Bay Cs

CXAT · Canada

TAF CXAT · Arctic Bay Cs

20 mei 16:30 LT
7h
Geldig van 20 mei 2024 16:00 tot 20 mei 2024 17:00
Tijd
maandag
16:00
>40%
Code
MVFR
Weer
Zwaar bewolkt
Zicht
6 mi+
Plafond
1.500 ft
Wind
270°
270°
Snelheid
12 kt
Windstoten
Temp/Zon

Origineel

TAF CYAB 202130Z 2021/2022 27012KT P6SM BKN030
TEMPO 2021/2022 BKN015 RMK NXT FCST BY 211300Z

TAF Arctic Bay Cs

Dit veld bevindt zich in Canada. Het vliegveld ligt op breedtegraad 73,00000 en lengtegraad -85,03333. De ICAO luchthavencode van dit veld is CXAT. De IATA-code van de luchthaven is XAT. Het vliegveld bevindt zich in de Edmonton FIR.

Deze waarneming is gedaan voor Arctic Bay Airport op 20 mei 2024 16:30, lokale tijd. Geldig van 20 mei 2024 16:00 tot 20 mei 2024 17:00, lokale tijd.

Verwachtingen

  • Tussen maandag 16:00 en 17:00

    • Wind: De wind staat vanuit de richting 270° met een snelheid van 12 kt.
    • Zicht: 6 mi of meer
    • Wolken: zwaar bewolkt op 3.000 ft hoogte.
  • Tijdelijk tussen maandag 16:00 en 17:00

    • Wolken: zwaar bewolkt op 1.500 ft hoogte.

Daglichtperiode

De zon komt vandaag op om 18:00 en gaat onder om 18:00. Dit geldt voor Arctic Bay Cs, de universele daglichtperiode kan anders zijn. Het verschil tussen de lokale tijd en UTC is -5 uur. Op dit moment is er sprake van zomertijd.

Wijziging doorgeven